Time;durP1;ratioP1;P1;durP2;ratioP2;P2;SDS_P1;SDS_P2;PMS_P1;PMS_P2;Temp;Humidity;BMP_temperature;BMP_pressure;BME280_temperature;BME280_humidity;BME280_pressure;Samples;Min_cycle;Max_cycle;Signal;HPM_P1;HPM_P2
2023/11/08 00:01:16;;;;;;;11.25;6.68;;;;;;;;;;5032037;28;20026;-54
2023/11/08 00:03:42;;;;;;;11.48;6.32;;;;;;;;;;4997251;28;20037;-53
2023/11/08 00:06:09;;;;;;;10.15;6.30;;;14.50;99.90;;;;;;4997020;28;20137;-55
2023/11/08 00:08:34;;;;;;;11.13;5.97;;;14.50;99.90;;;;;;5032003;28;20037;-53
2023/11/08 00:11:00;;;;;;;10.18;7.20;;;14.50;99.90;;;;;;5031997;28;20078;-54
2023/11/08 00:13:26;;;;;;;11.45;6.90;;;14.50;99.90;;;;;;5031812;28;20049;-53
2023/11/08 00:15:51;;;;;;;9.38;6.40;;;14.50;99.90;;;;;;5031981;28;20068;-55
2023/11/08 00:18:17;;;;;;;10.43;6.47;;;14.50;99.90;;;;;;5031848;28;20040;-54
2023/11/08 00:20:45;;;;;;;11.77;7.30;;;14.50;99.90;;;;;;5031775;28;20088;-53
2023/11/08 00:23:11;;;;;;;10.10;6.65;;;14.50;99.90;;;;;;5048193;28;20033;-55
2023/11/08 00:25:36;;;;;;;10.13;6.53;;;14.60;99.90;;;;;;5051312;28;20600;-55
2023/11/08 00:28:02;;;;;;;10.88;7.15;;;14.60;99.90;;;;;;5051701;28;20068;-52
2023/11/08 00:30:28;;;;;;;10.77;7.05;;;14.50;99.90;;;;;;5017162;28;20056;-54
2023/11/08 00:32:53;;;;;;;9.23;6.70;;;14.50;99.90;;;;;;5055865;28;20398;-53
2023/11/08 00:35:19;;;;;;;8.85;6.68;;;14.50;99.90;;;;;;5056059;28;20041;-55
2023/11/08 00:37:45;;;;;;;9.65;6.72;;;15.20;99.90;;;;;;5055495;28;20477;-55
2023/11/08 00:40:11;;;;;;;10.75;7.18;;;14.50;99.90;;;;;;5035675;28;20366;-55
2023/11/08 00:42:37;;;;;;;11.77;7.65;;;14.50;99.90;;;;;;5020110;28;20447;-54
2023/11/08 00:45:03;;;;;;;10.75;7.80;;;14.50;99.90;;;;;;5055450;28;20033;-54
2023/11/08 00:47:29;;;;;;;12.45;8.10;;;14.60;99.90;;;;;;5055451;28;20128;-52
2023/11/08 00:49:55;;;;;;;10.90;8.55;;;14.60;99.90;;;;;;5055223;28;20112;-55
2023/11/08 00:52:23;;;;;;;12.77;8.68;;;14.60;99.90;;;;;;5055373;28;20044;-55
2023/11/08 00:54:49;;;;;;;12.38;10.75;;;14.70;99.90;;;;;;5055355;28;20116;-54
2023/11/08 00:57:14;;;;;;;14.95;10.23;;;14.60;99.90;;;;;;5055539;28;20116;-53
2023/11/08 00:59:41;;;;;;;13.70;9.95;;;14.50;99.90;;;;;;5055300;28;20476;-53
2023/11/08 01:02:07;;;;;;;14.15;9.48;;;14.50;99.90;;;;;;5055319;28;20452;-53
2023/11/08 01:04:33;;;;;;;10.77;8.93;;;14.40;99.90;;;;;;5055065;28;20136;-53
2023/11/08 01:07:00;;;;;;;19.00;9.07;;;14.40;99.90;;;;;;5055225;28;20119;-56
2023/11/08 01:09:26;;;;;;;11.38;9.40;;;14.40;99.90;;;;;;5055153;28;20040;-53
2023/11/08 01:11:52;;;;;;;13.82;9.15;;;14.40;99.90;;;;;;5055103;28;20032;-56
2023/11/08 01:14:18;;;;;;;11.68;8.90;;;14.10;99.90;;;;;;5055235;28;20082;-55
2023/11/08 01:16:45;;;;;;;12.95;8.48;;;14.50;99.90;;;;;;5054926;28;20044;-55
2023/11/08 01:19:11;;;;;;;12.73;8.02;;;14.50;99.90;;;;;;5055307;28;20037;-53
2023/11/08 01:21:37;;;;;;;10.82;7.88;;;14.60;99.90;;;;;;5055057;28;20017;-54
2023/11/08 01:24:04;;;;;;;9.50;7.65;;;14.60;99.90;;;;;;5054893;28;20032;-53
2023/11/08 01:26:29;;;;;;;9.88;7.80;;;14.60;99.90;;;;;;5055086;28;20045;-55
2023/11/08 01:28:55;;;;;;;11.05;8.32;;;14.60;99.90;;;;;;5054701;28;20031;-56
2023/11/08 01:31:21;;;;;;;11.55;7.85;;;14.60;99.90;;;;;;5054757;28;20025;-53
2023/11/08 01:33:47;;;;;;;10.88;7.25;;;14.70;99.90;;;;;;5054604;28;20564;-53
2023/11/08 01:36:12;;;;;;;8.73;7.28;;;14.70;99.90;;;;;;5054721;28;20090;-54
2023/11/08 01:38:39;;;;;;;11.32;7.80;;;14.70;99.90;;;;;;5055158;28;20057;-54
2023/11/08 01:41:05;;;;;;;8.82;7.07;;;14.70;99.90;;;;;;5053977;28;20037;-53
2023/11/08 01:43:33;;;;;;;10.27;7.13;;;14.80;99.90;;;;;;5054468;28;20458;-55
2023/11/08 01:46:14;;;;;;;9.70;6.90;;;14.80;99.90;;;;;;5054584;28;20083;-56
2023/11/08 01:48:41;;;;;;;9.50;6.85;;;14.90;99.90;;;;;;5054656;28;20029;-55
2023/11/08 01:51:08;;;;;;;9.45;7.75;;;14.90;99.90;;;;;;5054655;28;20468;-53
2023/11/08 01:53:39;;;;;;;8.75;6.82;;;14.90;99.90;;;;;;5054467;28;20091;-56
2023/11/08 01:56:10;;;;;;;10.02;7.32;;;15.00;99.90;;;;;;5054175;28;20040;-55
2023/11/08 01:58:40;;;;;;;8.65;6.60;;;15.00;99.90;;;;;;5054720;28;20033;-56
2023/11/08 02:01:12;;;;;;;11.55;6.38;;;15.00;99.90;;;;;;5054263;28;20094;-55
2023/11/08 02:03:40;;;;;;;9.38;6.50;;;15.10;99.90;;;;;;5054214;28;20032;-52
2023/11/08 02:06:13;;;;;;;7.72;6.40;;;15.20;99.90;;;;;;5054114;28;20062;-55
2023/11/08 02:08:40;;;;;;;8.00;6.82;;;15.20;99.90;;;;;;5054440;28;20499;-55
2023/11/08 02:11:07;;;;;;;6.55;5.78;;;15.20;99.90;;;;;;5053859;28;20037;-54
2023/11/08 02:13:33;;;;;;;8.23;6.40;;;;;;;;;;5054017;28;20076;-54
2023/11/08 02:16:00;;;;;;;7.07;6.35;;;15.20;99.90;;;;;;5053580;28;20033;-53
2023/11/08 02:18:26;;;;;;;7.78;6.03;;;15.10;99.90;;;;;;5053792;28;20041;-54
2023/11/08 02:20:52;;;;;;;8.27;6.25;;;15.00;99.90;;;;;;5002083;28;20045;-56
2023/11/08 02:23:18;;;;;;;7.00;5.75;;;14.40;99.90;;;;;;5053736;28;20557;-55
2023/11/08 02:25:45;;;;;;;10.35;6.50;;;14.00;99.90;;;;;;5054100;28;20041;-54
2023/11/08 02:28:11;;;;;;;9.43;6.95;;;14.00;99.90;;;;;;5053838;28;20029;-53
2023/11/08 02:30:37;;;;;;;7.50;6.65;;;14.30;99.90;;;;;;5053711;28;20029;-52
2023/11/08 02:33:03;;;;;;;8.40;6.53;;;14.20;99.90;;;;;;5053487;28;20041;-53
2023/11/08 02:35:28;;;;;;;8.93;6.55;;;14.10;99.90;;;;;;5001762;28;20112;-55
2023/11/08 02:37:55;;;;;;;8.48;6.85;;;13.80;99.90;;;;;;5053504;28;20033;-55
2023/11/08 02:40:21;;;;;;;9.27;7.78;;;13.90;99.90;;;;;;5053765;28;20033;-55
2023/11/08 02:42:47;;;;;;;10.00;7.32;;;13.90;99.90;;;;;;5053377;28;20027;-54
2023/11/08 02:45:13;;;;;;;9.52;7.78;;;14.00;99.90;;;;;;5053321;28;20037;-54
2023/11/08 02:47:40;;;;;;;12.07;9.48;;;14.10;99.90;;;;;;5053647;28;20036;-54
2023/11/08 02:50:07;;;;;;;10.43;8.88;;;14.50;99.90;;;;;;5017999;28;20400;-54
2023/11/08 02:52:33;;;;;;;12.48;8.52;;;14.30;99.90;;;;;;5053348;28;20537;-54
2023/11/08 02:54:59;;;;;;;10.95;8.27;;;14.30;99.90;;;;;;5053342;28;20033;-54
2023/11/08 02:57:26;;;;;;;8.95;6.75;;;14.20;99.90;;;;;;5017826;28;20044;-53
2023/11/08 02:59:52;;;;;;;13.35;8.32;;;14.20;99.90;;;;;;5053268;28;20044;-54
2023/11/08 03:02:20;;;;;;;9.93;7.78;;;14.30;99.90;;;;;;5052218;28;20492;-54
2023/11/08 03:04:46;;;;;;;9.63;7.60;;;14.20;99.90;;;;;;4997369;28;20114;-55
2023/11/08 03:07:12;;;;;;;9.90;8.05;;;14.20;99.90;;;;;;5030749;28;20075;-55
2023/11/08 03:09:39;;;;;;;8.20;7.30;;;14.20;99.90;;;;;;5030888;28;20439;-53
2023/11/08 03:12:05;;;;;;;13.55;10.98;;;14.20;99.90;;;;;;5032831;28;20103;-55
2023/11/08 03:14:31;;;;;;;10.38;8.73;;;14.50;99.90;;;;;;5032879;28;20444;-53
2023/11/08 03:16:58;;;;;;;13.40;9.40;;;14.50;99.90;;;;;;5033003;28;20029;-55
2023/11/08 03:19:24;;;;;;;36.25;32.45;;;14.60;99.90;;;;;;5032687;28;20397;-52
2023/11/08 03:21:52;;;;;;;29.38;26.23;;;14.60;99.90;;;;;;5032958;28;20040;-52
2023/11/08 03:24:18;;;;;;;43.17;34.50;;;;;;;;;;5032863;28;20167;-54
2023/11/08 03:26:46;;;;;;;34.30;21.15;;;14.80;99.90;;;;;;5032713;28;20080;-54
2023/11/08 03:29:12;;;;;;;39.75;33.08;;;14.70;99.90;;;;;;5032642;28;20061;-53
2023/11/08 03:31:38;;;;;;;44.67;40.10;;;14.70;99.90;;;;;;5014023;28;20498;-53
2023/11/08 03:34:04;;;;;;;30.85;22.25;;;14.70;99.90;;;;;;5032976;28;20423;-54
2023/11/08 03:36:30;;;;;;;26.90;19.02;;;14.60;99.90;;;;;;5032444;28;20365;-54
2023/11/08 03:38:56;;;;;;;26.02;20.83;;;14.60;99.90;;;;;;5013770;28;20045;-53
2023/11/08 03:41:24;;;;;;;24.50;18.35;;;14.70;99.90;;;;;;5032669;28;20033;-53
2023/11/08 03:43:54;;;;;;;18.83;16.33;;;14.70;99.90;;;;;;5032390;28;20033;-55
2023/11/08 03:46:21;;;;;;;31.15;23.38;;;14.70;99.90;;;;;;5032287;28;20440;-52
2023/11/08 03:48:53;;;;;;;22.30;19.63;;;14.90;99.90;;;;;;5032700;28;20033;-54
2023/11/08 03:51:19;;;;;;;27.73;24.10;;;14.60;99.90;;;;;;5032336;28;20042;-54
2023/11/08 03:53:45;;;;;;;21.55;18.27;;;14.70;99.90;;;;;;5032244;28;20444;-52
2023/11/08 03:56:13;;;;;;;18.00;16.10;;;14.70;99.90;;;;;;5032172;28;20037;-55
2023/11/08 03:58:39;;;;;;;16.02;12.65;;;14.60;99.90;;;;;;5032296;28;20448;-55
2023/11/08 04:01:05;;;;;;;14.43;9.68;;;14.50;99.90;;;;;;5032088;28;20067;-55
2023/11/08 04:03:31;;;;;;;13.82;9.95;;;14.60;99.90;;;;;;5013429;28;20107;-54
2023/11/08 04:05:57;;;;;;;10.43;9.02;;;14.50;99.90;;;;;;5031415;28;20057;-54
2023/11/08 04:08:23;;;;;;;11.23;9.05;;;14.60;99.90;;;;;;5029720;28;20076;-55
2023/11/08 04:10:49;;;;;;;13.38;9.35;;;14.60;99.90;;;;;;5032099;28;20068;-55
2023/11/08 04:13:15;;;;;;;12.65;9.18;;;14.60;99.90;;;;;;5013212;28;20072;-54
2023/11/08 04:15:41;;;;;;;10.40;9.38;;;14.50;99.90;;;;;;5031956;28;20112;-55
2023/11/08 04:18:06;;;;;;;12.25;9.05;;;14.60;99.90;;;;;;5013371;28;20397;-54
2023/11/08 04:20:32;;;;;;;9.38;8.25;;;14.60;99.90;;;;;;5031817;28;20069;-55
2023/11/08 04:22:58;;;;;;;9.40;8.27;;;14.60;99.90;;;;;;5029667;28;20128;-52
2023/11/08 04:25:24;;;;;;;12.90;8.75;;;14.70;99.90;;;;;;5031877;28;20029;-55
2023/11/08 04:27:49;;;;;;;12.27;8.73;;;14.70;99.90;;;;;;5031865;28;20034;-55
2023/11/08 04:30:16;;;;;;;10.70;9.60;;;;;;;;;;5029778;28;20069;-53
2023/11/08 04:32:43;;;;;;;10.57;9.10;;;14.60;99.90;;;;;;5031849;28;20124;-56
2023/11/08 04:35:09;;;;;;;16.15;9.75;;;14.60;99.90;;;;;;5031746;28;20437;-54
2023/11/08 04:37:37;;;;;;;11.57;9.48;;;14.50;99.90;;;;;;5032029;28;20033;-55
2023/11/08 04:40:04;;;;;;;9.75;8.50;;;14.20;99.90;;;;;;5031969;28;20058;-55
2023/11/08 04:42:30;;;;;;;16.33;10.32;;;14.50;99.90;;;;;;5031598;28;20115;-55
2023/11/08 04:44:56;;;;;;;11.00;9.80;;;14.50;99.90;;;;;;5031644;28;20526;-53
2023/11/08 04:47:23;;;;;;;13.73;9.43;;;14.40;99.90;;;;;;5031982;28;20034;-53
2023/11/08 04:49:50;;;;;;;11.88;9.57;;;14.80;99.90;;;;;;5031851;28;20029;-54
2023/11/08 04:52:17;;;;;;;11.80;9.25;;;14.40;99.90;;;;;;5031646;28;20056;-54
2023/11/08 04:54:48;;;;;;;11.07;9.65;;;14.50;99.90;;;;;;5030291;28;20368;-54
2023/11/08 04:57:17;;;;;;;11.27;9.95;;;14.60;99.90;;;;;;5031606;28;20036;-55
2023/11/08 04:59:47;;;;;;;10.30;9.20;;;14.30;99.90;;;;;;5031808;28;20120;-53
2023/11/08 05:02:15;;;;;;;16.58;12.55;;;14.40;99.90;;;;;;5012936;28;20045;-55
2023/11/08 05:04:42;;;;;;;30.05;20.92;;;14.20;99.90;;;;;;5031118;28;20061;-55
2023/11/08 05:07:08;;;;;;;31.42;26.65;;;14.40;99.90;;;;;;5031681;28;20029;-53
2023/11/08 05:09:39;;;;;;;29.17;20.70;;;14.00;99.90;;;;;;5031412;28;20116;-53
2023/11/08 05:12:16;;;;;;;21.98;16.85;;;13.90;99.90;;;;;;5031301;28;20049;-53
2023/11/08 05:14:42;;;;;;;26.90;20.52;;;14.00;99.90;;;;;;5013940;28;20377;-54
2023/11/08 05:17:08;;;;;;;24.60;18.80;;;14.10;99.90;;;;;;5032927;28;20036;-55
2023/11/08 05:19:33;;;;;;;23.02;17.13;;;14.10;99.90;;;;;;5035206;28;20044;-56
2023/11/08 05:21:59;;;;;;;21.88;16.63;;;14.10;99.90;;;;;;5035083;28;20041;-54
2023/11/08 05:24:25;;;;;;;14.57;10.48;;;14.00;99.90;;;;;;5035213;28;20044;-53
2023/11/08 05:26:51;;;;;;;9.38;7.47;;;14.00;99.90;;;;;;5035008;28;20112;-53
2023/11/08 05:29:18;;;;;;;8.48;6.70;;;14.00;99.90;;;;;;5043980;28;20056;-55
2023/11/08 05:31:44;;;;;;;7.25;6.20;;;14.00;99.90;;;;;;5054451;28;20086;-53
2023/11/08 05:34:10;;;;;;;8.77;5.47;;;14.00;99.90;;;;;;5054663;28;20120;-53
2023/11/08 05:36:36;;;;;;;6.85;4.63;;;13.80;99.90;;;;;;5054660;28;20116;-55
2023/11/08 05:39:03;;;;;;;7.75;3.72;;;13.60;99.90;;;;;;5036229;28;20079;-56
2023/11/08 05:41:30;;;;;;;4.47;2.80;;;13.70;99.90;;;;;;5054096;28;20043;-56
2023/11/08 05:43:57;;;;;;;4.80;2.70;;;13.60;99.90;;;;;;5053038;28;20025;-54
2023/11/08 05:46:24;;;;;;;5.55;2.70;;;13.60;99.90;;;;;;5053695;28;20603;-53
2023/11/08 05:48:50;;;;;;;5.82;2.92;;;13.50;99.90;;;;;;5053806;28;20508;-55
2023/11/08 05:51:15;;;;;;;14.35;3.08;;;13.60;99.90;;;;;;5018354;28;20044;-55
2023/11/08 05:53:41;;;;;;;6.25;3.45;;;13.60;99.90;;;;;;5054263;28;20476;-55
2023/11/08 05:56:07;;;;;;;6.13;3.33;;;13.60;99.90;;;;;;5053868;28;20166;-55
2023/11/08 05:58:36;;;;;;;7.65;4.15;;;13.70;99.90;;;;;;5053709;28;20029;-55
2023/11/08 06:01:03;;;;;;;6.32;3.95;;;13.70;99.90;;;;;;5018336;28;20048;-56
2023/11/08 06:03:29;;;;;;;7.43;4.55;;;13.80;99.90;;;;;;5053870;28;20033;-55
2023/11/08 06:05:55;;;;;;;10.55;5.35;;;13.90;99.90;;;;;;5054141;28;20045;-55
2023/11/08 06:08:20;;;;;;;10.25;4.50;;;13.80;99.90;;;;;;5053998;28;20384;-56
2023/11/08 06:10:48;;;;;;;7.50;4.30;;;13.90;99.90;;;;;;5052860;28;20033;-53
2023/11/08 06:13:14;;;;;;;8.05;4.40;;;;;;;;;;5054040;28;20045;-54
2023/11/08 06:15:40;;;;;;;6.18;3.88;;;14.10;99.90;;;;;;5053824;28;20028;-55
2023/11/08 06:18:08;;;;;;;7.60;4.00;;;14.00;99.90;;;;;;5053819;28;20107;-53
2023/11/08 06:20:34;;;;;;;5.88;4.13;;;14.00;99.90;;;;;;5054015;28;20037;-55
2023/11/08 06:23:02;;;;;;;7.47;4.10;;;14.30;99.90;;;;;;5053730;28;20025;-54
2023/11/08 06:25:32;;;;;;;11.10;5.05;;;14.50;99.90;;;;;;5003144;28;20049;-53
2023/11/08 06:27:59;;;;;;;10.32;4.07;;;14.50;99.90;;;;;;5053111;28;20500;-53
2023/11/08 06:30:25;;;;;;;5.90;4.28;;;14.60;99.90;;;;;;5053363;28;20041;-55
2023/11/08 06:32:50;;;;;;;9.10;5.18;;;14.50;99.90;;;;;;5053766;28;20043;-54
2023/11/08 06:35:16;;;;;;;11.07;7.20;;;14.50;99.90;;;;;;5053857;28;20079;-54
2023/11/08 06:37:42;;;;;;;8.27;6.15;;;14.40;99.90;;;;;;5053575;28;20033;-54
2023/11/08 06:40:09;;;;;;;11.75;5.47;;;14.40;99.90;;;;;;5053782;28;20025;-55
2023/11/08 06:42:35;;;;;;;9.10;5.28;;;14.40;99.90;;;;;;5053787;28;20067;-55
2023/11/08 06:45:03;;;;;;;9.00;7.40;;;14.30;99.90;;;;;;5052934;28;20037;-55
2023/11/08 06:47:29;;;;;;;19.10;12.02;;;14.30;99.90;;;;;;5053158;28;20071;-54
2023/11/08 06:49:56;;;;;;;24.27;19.90;;;14.30;99.90;;;;;;5017765;28;20045;-55
2023/11/08 06:52:25;;;;;;;43.63;35.35;;;14.20;99.90;;;;;;5050929;28;20045;-53
2023/11/08 06:54:51;;;;;;;11.25;9.27;;;14.20;99.90;;;;;;5052550;28;20067;-54
2023/11/08 06:57:17;;;;;;;54.10;38.83;;;14.10;99.90;;;;;;5052538;28;20025;-54
2023/11/08 06:59:43;;;;;;;13.88;10.70;;;14.10;99.90;;;;;;5052491;28;20036;-54
2023/11/08 07:02:09;;;;;;;51.22;37.67;;;13.80;99.90;;;;;;5001325;28;20062;-54
2023/11/08 07:04:35;;;;;;;21.38;12.68;;;13.60;99.90;;;;;;5052380;28;20045;-53
2023/11/08 07:07:01;;;;;;;45.03;24.98;;;13.50;99.90;;;;;;5052237;28;20043;-56
2023/11/08 07:09:28;;;;;;;140.13;66.57;;;13.40;99.90;;;;;;5052487;28;20044;-54
2023/11/08 07:11:54;;;;;;;21.65;12.93;;;13.40;99.90;;;;;;5052152;28;20025;-53
2023/11/08 07:14:19;;;;;;;253.23;104.97;;;13.60;99.90;;;;;;5052319;28;20499;-53
2023/11/08 07:16:46;;;;;;;170.73;68.35;;;;;;;;;;5052132;28;20028;-54
2023/11/08 07:19:13;;;;;;;81.40;30.08;;;13.50;99.90;;;;;;5000699;28;20097;-53
2023/11/08 07:21:39;;;;;;;44.97;21.80;;;13.30;99.90;;;;;;5000306;28;20045;-54
2023/11/08 07:24:06;;;;;;;55.10;24.02;;;13.40;99.90;;;;;;5051570;28;20047;-55
2023/11/08 07:26:33;;;;;;;20.27;10.80;;;13.50;99.90;;;;;;5052092;28;20036;-54
2023/11/08 07:29:03;;;;;;;43.53;18.00;;;13.50;99.90;;;;;;5001952;28;20062;-55
2023/11/08 07:31:30;;;;;;;235.55;72.95;;;13.30;99.90;;;;;;5051806;28;20640;-55
2023/11/08 07:33:56;;;;;;;298.63;95.50;;;13.20;99.90;;;;;;5051492;28;20041;-53
2023/11/08 07:36:23;;;;;;;331.00;115.03;;;13.20;99.90;;;;;;5052055;28;20033;-53
2023/11/08 07:38:50;;;;;;;32.35;15.95;;;13.40;99.90;;;;;;5051484;28;20464;-55
2023/11/08 07:41:16;;;;;;;74.40;28.15;;;13.50;99.90;;;;;;5052354;28;20048;-54
2023/11/08 07:43:42;;;;;;;198.13;68.22;;;13.40;99.90;;;;;;5052275;28;20017;-53
2023/11/08 07:46:08;;;;;;;55.80;23.45;;;13.30;99.90;;;;;;5052218;28;20021;-52
2023/11/08 07:48:34;;;;;;;108.63;41.80;;;13.30;99.90;;;;;;5052548;28;20033;-55
2023/11/08 07:51:03;;;;;;;73.68;30.85;;;13.30;99.90;;;;;;5050287;28;20021;-54
2023/11/08 07:53:29;;;;;;;151.60;59.05;;;13.10;99.90;;;;;;5051471;28;20392;-54
2023/11/08 07:55:55;;;;;;;81.65;34.65;;;13.20;99.90;;;;;;5051345;28;20017;-52
2023/11/08 07:58:22;;;;;;;274.88;110.85;;;13.10;99.90;;;;;;5051305;28;20024;-55
2023/11/08 08:00:47;;;;;;;212.25;67.93;;;13.00;99.90;;;;;;5051014;28;20575;-53
2023/11/08 08:03:14;;;;;;;46.47;20.67;;;13.10;99.90;;;;;;4997101;28;20139;-54
2023/11/08 08:05:41;;;;;;;56.20;25.40;;;13.00;99.90;;;;;;5011977;28;20053;-55
2023/11/08 08:08:07;;;;;;;18.10;8.32;;;12.90;99.90;;;;;;5031802;28;20032;-54
2023/11/08 08:10:33;;;;;;;55.10;25.70;;;12.80;99.90;;;;;;5031747;28;20112;-53
2023/11/08 08:13:00;;;;;;;40.33;19.92;;;12.50;99.90;;;;;;5031050;28;20053;-54
2023/11/08 08:15:27;;;;;;;34.63;17.85;;;12.60;99.90;;;;;;5012771;28;20035;-53
2023/11/08 08:17:53;;;;;;;14.10;9.40;;;12.40;99.90;;;;;;5031492;28;20033;-53
2023/11/08 08:20:19;;;;;;;9.20;4.72;;;12.50;99.90;;;;;;5031486;28;20487;-54
2023/11/08 08:22:45;;;;;;;42.95;24.08;;;12.50;99.90;;;;;;5031467;28;20380;-54
2023/11/08 08:25:11;;;;;;;54.97;28.27;;;12.50;99.90;;;;;;4979031;28;20032;-53
2023/11/08 08:27:39;;;;;;;18.35;10.85;;;12.50;99.90;;;;;;5028879;28;20091;-54
2023/11/08 08:30:11;;;;;;;20.80;13.10;;;12.50;99.90;;;;;;5030233;28;20056;-55
2023/11/08 08:32:37;;;;;;;62.83;33.67;;;12.50;99.90;;;;;;5031745;28;20068;-54
2023/11/08 08:35:04;;;;;;;25.80;13.68;;;12.50;99.90;;;;;;5032143;28;20353;-53
2023/11/08 08:37:32;;;;;;;54.17;27.70;;;12.80;99.90;;;;;;5031819;28;20029;-53
2023/11/08 08:39:59;;;;;;;47.47;24.45;;;12.70;99.90;;;;;;5031659;28;20041;-55
2023/11/08 08:42:25;;;;;;;26.85;17.27;;;12.90;99.90;;;;;;5031861;28;20438;-54
2023/11/08 08:44:51;;;;;;;35.70;20.05;;;13.00;99.90;;;;;;5030779;28;20068;-54
2023/11/08 08:47:16;;;;;;;13.70;8.95;;;13.20;99.90;;;;;;5031127;28;20070;-56
2023/11/08 08:49:42;;;;;;;12.23;8.40;;;13.60;99.90;;;;;;5031195;28;20427;-54
2023/11/08 08:52:08;;;;;;;7.00;5.32;;;14.10;99.90;;;;;;5034241;28;20029;-54
2023/11/08 08:54:35;;;;;;;7.97;6.07;;;14.30;99.90;;;;;;5034429;28;20025;-56
2023/11/08 08:57:02;;;;;;;8.48;6.80;;;;;;;;;;5034525;28;20034;-54
2023/11/08 08:59:28;;;;;;;11.68;7.00;;;;;;;;;;5031504;28;20052;-54
2023/11/08 09:01:54;;;;;;;16.40;11.35;;;15.80;99.90;;;;;;5035722;28;20160;-55
2023/11/08 09:04:20;;;;;;;10.30;7.55;;;15.80;99.90;;;;;;5038152;28;20127;-54
2023/11/08 09:06:46;;;;;;;17.85;11.90;;;15.40;99.90;;;;;;5054830;28;20021;-54
2023/11/08 09:09:14;;;;;;;5.20;3.53;;;15.20;99.90;;;;;;5019012;28;20044;-56
2023/11/08 09:11:40;;;;;;;11.35;8.77;;;;;;;;;;5055055;28;20041;-55
2023/11/08 09:14:08;;;;;;;6.18;3.45;;;;;;;;;;5055124;28;20116;-54
2023/11/08 09:16:35;;;;;;;3.92;3.17;;;;;;;;;;5055233;28;20484;-53
2023/11/08 09:19:01;;;;;;;4.70;3.45;;;14.00;99.90;;;;;;5054846;28;20036;-53
2023/11/08 09:21:27;;;;;;;5.55;4.00;;;14.00;99.90;;;;;;5048645;28;20029;-54
2023/11/08 09:23:53;;;;;;;4.13;3.25;;;14.00;99.90;;;;;;5054425;28;20071;-55
2023/11/08 09:26:18;;;;;;;2.33;1.67;;;13.70;99.90;;;;;;5054841;28;20029;-54
2023/11/08 09:28:44;;;;;;;6.22;2.50;;;13.60;99.90;;;;;;5003374;28;20112;-54
2023/11/08 09:31:11;;;;;;;3.30;2.60;;;13.60;99.90;;;;;;5054947;28;20029;-55
2023/11/08 09:33:37;;;;;;;5.95;2.80;;;13.80;99.90;;;;;;5003886;28;20056;-55
2023/11/08 09:36:03;;;;;;;3.65;2.53;;;13.70;99.90;;;;;;5054661;28;20033;-54
2023/11/08 09:38:30;;;;;;;6.18;3.25;;;13.70;99.90;;;;;;5002892;28;20033;-54
2023/11/08 09:40:57;;;;;;;3.15;2.42;;;13.80;99.90;;;;;;5054721;28;20399;-54
2023/11/08 09:43:23;;;;;;;3.85;2.63;;;14.00;99.90;;;;;;5054448;28;20045;-55
2023/11/08 09:45:51;;;;;;;3.22;2.20;;;13.70;99.90;;;;;;5054793;28;20060;-54
2023/11/08 09:48:20;;;;;;;6.90;3.80;;;13.70;99.90;;;;;;5018344;28;20049;-54
2023/11/08 09:50:46;;;;;;;4.50;3.17;;;13.70;99.90;;;;;;5053814;28;20059;-54
2023/11/08 09:53:13;;;;;;;4.50;2.92;;;13.80;99.90;;;;;;5054015;28;20041;-53
2023/11/08 09:55:39;;;;;;;3.80;2.33;;;13.90;99.90;;;;;;5054023;28;20035;-54
2023/11/08 09:58:06;;;;;;;4.30;3.05;;;13.90;99.90;;;;;;5053690;28;20530;-53
2023/11/08 10:00:33;;;;;;;5.07;2.50;;;14.10;99.90;;;;;;5053559;28;20021;-55
2023/11/08 10:03:02;;;;;;;5.13;2.60;;;14.20;99.90;;;;;;5052224;28;20032;-54
2023/11/08 10:05:30;;;;;;;3.60;2.67;;;14.20;99.90;;;;;;5053433;28;20560;-55
2023/11/08 10:07:56;;;;;;;6.82;4.28;;;14.30;99.90;;;;;;5052511;28;20026;-52
2023/11/08 10:10:24;;;;;;;5.85;4.07;;;;;;;;;;5053230;28;20036;-54
2023/11/08 10:13:06;;;;;;;3.53;2.20;;;14.40;99.90;;;;;;5053160;28;20066;-54
2023/11/08 10:15:36;;;;;;;3.20;2.53;;;;;;;;;;5053196;28;20033;-54
2023/11/08 10:18:02;;;;;;;3.33;2.50;;;14.30;99.90;;;;;;5053171;28;20032;-53
2023/11/08 10:20:34;;;;;;;3.75;2.70;;;;;;;;;;5053308;28;20025;-53
2023/11/08 10:23:01;;;;;;;7.50;2.83;;;;;;;;;;5053156;28;20078;-54
2023/11/08 10:25:29;;;;;;;3.63;2.47;;;15.30;99.90;;;;;;5053318;28;20025;-54
2023/11/08 10:28:06;;;;;;;2.25;1.52;;;15.40;99.90;;;;;;5052873;28;20032;-54
2023/11/08 10:30:39;;;;;;;2.42;1.80;;;15.30;99.90;;;;;;5052858;28;20415;-54
2023/11/08 10:33:09;;;;;;;4.60;2.20;;;15.20;99.90;;;;;;5050543;28;20041;-53
2023/11/08 10:35:37;;;;;;;5.18;2.65;;;15.00;99.90;;;;;;5052891;28;20029;-54
2023/11/08 10:38:05;;;;;;;2.75;1.90;;;;;;;;;;4998751;28;20061;-53
2023/11/08 10:40:32;;;;;;;2.33;1.52;;;;;;;;;;5051981;28;20094;-54
2023/11/08 10:42:58;;;;;;;2.83;1.75;;;15.00;99.90;;;;;;5000192;28;20075;-53
2023/11/08 10:45:26;;;;;;;3.17;1.50;;;14.90;99.90;;;;;;5052120;28;20044;-54
2023/11/08 10:47:52;;;;;;;4.88;2.00;;;;;;;;;;5052757;28;20472;-54
2023/11/08 10:50:20;;;;;;;3.95;2.15;;;;;;;;;;5051731;28;20032;-54
2023/11/08 10:52:46;;;;;;;2.85;1.90;;;;;;;;;;5049805;28;20040;-53
2023/11/08 10:55:12;;;;;;;2.97;2.33;;;;;;;;;;5052609;28;20078;-55
2023/11/08 10:57:41;;;;;;;3.72;2.17;;;;;;;;;;5052580;28;20100;-54
2023/11/08 11:00:08;;;;;;;4.28;1.98;;;;;;;;;;5048822;28;20035;-54
2023/11/08 11:02:35;;;;;;;3.63;1.88;;;;;;;;;;5052365;28;20025;-54
2023/11/08 11:05:08;;;;;;;3.40;1.90;;;;;;;;;;5052186;28;20066;-55
2023/11/08 11:07:35;;;;;;;4.22;1.95;;;;;;;;;;5052329;28;20017;-54
2023/11/08 11:10:01;;;;;;;3.13;2.60;;;14.80;99.90;;;;;;5052335;28;20037;-54
2023/11/08 11:12:35;;;;;;;3.40;2.03;;;;;;;;;;5052721;28;20040;-54
2023/11/08 11:15:08;;;;;;;3.08;2.10;;;;;;;;;;5052804;28;20048;-54
2023/11/08 11:17:36;;;;;;;4.03;2.17;;;;;;;;;;5052383;28;20037;-54
2023/11/08 11:20:05;;;;;;;3.22;1.85;;;;;;;;;;5049394;28;20032;-54
2023/11/08 11:22:32;;;;;;;2.70;2.08;;;15.80;99.90;;;;;;4990414;28;20054;-57
2023/11/08 11:24:58;;;;;;;2.13;1.92;;;16.00;99.90;;;;;;4990705;28;20120;-55
2023/11/08 11:27:32;;;;;;;1.85;1.50;;;15.90;99.90;;;;;;4955698;28;20490;-55
2023/11/08 11:30:13;;;;;;;4.40;2.60;;;15.40;99.90;;;;;;4990412;28;20117;-55
2023/11/08 11:32:46;;;;;;;2.60;2.00;;;;;;;;;;4948215;28;20050;-55
2023/11/08 11:35:34;;;;;;;3.28;2.20;;;;;;;;;;4932989;29;20047;-55
2023/11/08 11:38:05;;;;;;;4.00;2.20;;;16.40;99.90;;;;;;4931997;29;20035;-56
2023/11/08 11:40:35;;;;;;;3.47;2.42;;;16.40;99.90;;;;;;4932868;29;20031;-55
2023/11/08 11:43:02;;;;;;;4.20;3.72;;;15.70;99.90;;;;;;4932805;29;20040;-53
2023/11/08 11:45:30;;;;;;;5.43;4.15;;;16.80;99.90;;;;;;4913584;29;20042;-55
2023/11/08 11:47:57;;;;;;;7.45;6.75;;;16.80;99.90;;;;;;4913769;29;20504;-56
2023/11/08 11:50:27;;;;;;;7.60;2.75;;;17.60;99.90;;;;;;4913703;29;20062;-56
2023/11/08 11:52:53;;;;;;;4.47;2.20;;;17.30;99.90;;;;;;4922719;29;20051;-56
2023/11/08 11:55:22;;;;;;;2.30;1.88;;;17.50;99.90;;;;;;4951890;29;20447;-54
2023/11/08 11:57:47;;;;;;;4.80;2.22;;;17.30;99.90;;;;;;4951626;29;20035;-56
2023/11/08 12:00:14;;;;;;;5.22;2.10;;;16.90;99.90;;;;;;4903930;29;20509;-55
2023/11/08 12:02:40;;;;;;;2.88;1.70;;;17.10;99.90;;;;;;4919945;29;20142;-54
2023/11/08 12:05:07;;;;;;;5.03;3.05;;;17.10;99.90;;;;;;4951516;29;20126;-56
2023/11/08 12:07:36;;;;;;;2.70;2.10;;;17.10;99.90;;;;;;4951832;29;20490;-54
2023/11/08 12:10:10;;;;;;;2.80;1.73;;;16.60;99.90;;;;;;4969927;28;20035;-55
2023/11/08 12:12:38;;;;;;;2.85;1.63;;;17.20;99.90;;;;;;4990088;28;20073;-54
2023/11/08 12:15:15;;;;;;;3.70;1.80;;;;;;;;;;4990247;28;20470;-53
2023/11/08 12:17:41;;;;;;;2.45;1.50;;;;;;;;;;5032007;28;20041;-52
2023/11/08 12:20:08;;;;;;;4.25;2.28;;;;;;;;;;5032143;28;20039;-52
2023/11/08 12:22:34;;;;;;;3.25;1.75;;;;;;;;;;5013504;28;20121;-54
2023/11/08 12:25:00;;;;;;;3.40;1.60;;;;;;;;;;5031465;28;20040;-51
2023/11/08 12:27:26;;;;;;;1.98;1.60;;;17.70;99.90;;;;;;5031791;28;20025;-53
2023/11/08 12:29:51;;;;;;;4.85;1.80;;;17.70;99.90;;;;;;5031778;28;20559;-54
2023/11/08 12:32:17;;;;;;;2.85;1.83;;;;;;;;;;5009520;28;20050;-53
2023/11/08 12:34:43;;;;;;;3.45;1.70;;;17.60;99.90;;;;;;5009560;28;20041;-54
2023/11/08 12:37:11;;;;;;;3.42;1.73;;;17.80;99.90;;;;;;5009677;28;20501;-55
2023/11/08 12:39:37;;;;;;;2.03;1.55;;;17.90;99.90;;;;;;5009611;28;20038;-55
2023/11/08 12:42:14;;;;;;;5.50;1.77;;;18.20;99.90;;;;;;5009548;28;20533;-52
2023/11/08 12:44:49;;;;;;;2.05;1.55;;;18.10;99.90;;;;;;5009606;28;20034;-53
2023/11/08 12:47:15;;;;;;;3.22;2.28;;;17.50;99.90;;;;;;5009615;28;20040;-55
2023/11/08 12:49:41;;;;;;;5.25;1.65;;;17.70;99.90;;;;;;5009494;28;20033;-53